Time;durP1;ratioP1;P1;durP2;ratioP2;P2;SDS_P1;SDS_P2;PMS_P1;PMS_P2;Temp;Humidity;BMP_temperature;BMP_pressure;BME280_temperature;BME280_humidity;BME280_pressure;Samples;Min_cycle;Max_cycle;Signal;HPM_P1;HPM_P2
2022/03/25 00:00:36;;;;;;;67.70;34.60;;;;;;;7.74;73.64;103019.63;5094465;28;20032;-76
2022/03/25 00:03:02;;;;;;;64.53;34.40;;;;;;;7.68;73.84;103020.91;5076221;28;20024;-76
2022/03/25 00:05:28;;;;;;;66.07;34.75;;;;;;;7.73;73.49;103027.47;5094627;28;20020;-76
2022/03/25 00:07:53;;;;;;;63.30;33.80;;;;;;;7.74;73.69;103026.50;5076180;28;20020;-76
2022/03/25 00:10:19;;;;;;;64.95;33.28;;;;;;;7.70;73.84;103020.78;5094540;28;20479;-74
2022/03/25 00:12:44;;;;;;;66.18;34.92;;;;;;;7.69;73.97;103017.38;5075938;28;20081;-75
2022/03/25 00:15:10;;;;;;;73.07;36.58;;;;;;;7.62;74.21;103023.94;5094168;28;20125;-75
2022/03/25 00:17:35;;;;;;;68.13;35.00;;;;;;;7.60;74.00;103025.78;5094384;28;20020;-74
2022/03/25 00:20:00;;;;;;;66.45;34.38;;;;;;;7.53;74.68;103023.78;5093179;28;20024;-74
2022/03/25 00:22:26;;;;;;;72.57;34.25;;;;;;;7.47;75.01;103020.72;5094187;28;20032;-75
2022/03/25 00:24:51;;;;;;;67.28;34.63;;;;;;;7.50;73.77;103027.38;5094286;28;20091;-76
2022/03/25 00:27:17;;;;;;;65.63;34.38;;;;;;;7.45;73.71;103024.31;5094305;28;20109;-75
2022/03/25 00:29:43;;;;;;;64.75;34.08;;;;;;;7.42;74.63;103019.41;5075973;28;20073;-75
2022/03/25 00:32:08;;;;;;;63.78;33.05;;;;;;;7.40;74.76;103029.00;5094237;28;20024;-74
2022/03/25 00:34:33;;;;;;;69.15;34.53;;;;;;;7.20;75.03;103023.53;5094086;28;20085;-75
2022/03/25 00:37:00;;;;;;;71.55;34.80;;;;;;;7.17;75.11;103022.94;5075647;28;20421;-76
2022/03/25 00:39:25;;;;;;;69.60;34.38;;;;;;;7.22;75.22;103026.81;5075706;28;20059;-75
2022/03/25 00:41:51;;;;;;;69.55;34.20;;;;;;;7.24;74.83;103017.22;5093910;28;20055;-75
2022/03/25 00:44:18;;;;;;;68.05;33.75;;;;;;;7.20;75.13;103015.81;5093654;28;20024;-75
2022/03/25 00:46:44;;;;;;;68.10;33.35;;;;;;;7.06;75.08;103018.53;5075731;28;20039;-75
2022/03/25 00:49:10;;;;;;;71.15;34.65;;;;;;;7.05;74.92;103022.06;5093799;28;20062;-74
2022/03/25 00:51:35;;;;;;;62.92;33.55;;;;;;;7.09;74.84;103012.38;5093648;28;20048;-75
2022/03/25 00:54:02;;;;;;;68.72;32.92;;;;;;;7.03;74.17;103018.75;5093681;28;20024;-76
2022/03/25 00:56:27;;;;;;;65.22;33.38;;;;;;;6.88;74.68;103014.72;5075636;28;20111;-74
2022/03/25 00:58:52;;;;;;;70.72;33.58;;;;;;;6.99;74.75;103022.47;5093537;28;20052;-75
2022/03/25 01:01:18;;;;;;;64.50;33.28;;;;;;;6.89;75.22;103012.03;5075559;28;20019;-75
2022/03/25 01:03:43;;;;;;;66.57;33.80;;;;;;;6.87;74.90;103013.06;5093754;28;20027;-75
2022/03/25 01:06:09;;;;;;;69.68;34.45;;;;;;;6.75;74.56;103015.56;5093617;28;20016;-76
2022/03/25 01:08:35;;;;;;;64.65;34.35;;;;;;;6.39;74.83;103011.22;5093537;28;20024;-76
2022/03/25 01:11:01;;;;;;;69.20;34.72;;;;;;;6.41;76.33;103023.94;5074686;28;20027;-74
2022/03/25 01:13:32;;;;;;;71.07;34.42;;;;;;;6.46;75.95;103024.47;5092196;28;20080;-75
2022/03/25 01:15:57;;;;;;;66.97;34.60;;;;;;;6.57;76.22;103024.53;5093212;28;20028;-75
2022/03/25 01:18:22;;;;;;;71.07;34.70;;;;;;;6.62;75.75;103019.91;5093241;28;20051;-76
2022/03/25 01:20:48;;;;;;;70.72;34.85;;;;;;;6.60;75.28;103016.63;5093182;28;20103;-75
2022/03/25 01:23:13;;;;;;;74.22;35.45;;;;;;;6.63;74.94;103018.97;5074812;28;20028;-76
2022/03/25 01:25:38;;;;;;;71.68;35.63;;;;;;;6.67;75.08;103020.41;5075059;28;20067;-75
2022/03/25 01:28:04;;;;;;;67.35;33.95;;;;;;;6.64;74.78;103018.03;5093349;28;20024;-74
2022/03/25 01:30:29;;;;;;;74.80;35.47;;;;;;;6.30;75.59;103028.06;5093040;28;20030;-75
2022/03/25 01:32:55;;;;;;;72.07;34.83;;;;;;;6.16;76.21;103023.06;5093128;28;20052;-76
2022/03/25 01:35:24;;;;;;;78.28;35.20;;;;;;;6.18;75.80;103023.75;5093554;28;20020;-74
2022/03/25 01:37:50;;;;;;;74.03;36.55;;;;;;;6.33;76.42;103024.50;5075243;28;20030;-75
2022/03/25 01:40:15;;;;;;;76.15;37.00;;;;;;;6.47;75.81;103020.97;5093423;28;20539;-75
2022/03/25 01:42:41;;;;;;;78.35;36.50;;;;;;;6.45;75.29;103015.94;5093167;28;20031;-75
2022/03/25 01:45:11;;;;;;;73.82;36.05;;;;;;;6.17;75.30;103019.53;5075198;28;20050;-74
2022/03/25 01:47:36;;;;;;;73.00;36.80;;;;;;;6.01;76.38;103014.63;5093360;28;20027;-76
2022/03/25 01:50:02;;;;;;;70.63;36.65;;;;;;;6.01;77.09;103011.22;5093072;28;20586;-75
2022/03/25 01:52:28;;;;;;;71.22;35.13;;;;;;;6.08;76.86;103013.28;5092027;28;20456;-75
2022/03/25 01:54:54;;;;;;;81.45;35.95;;;;;;;6.15;76.20;103015.44;5075098;28;20020;-73
2022/03/25 01:57:25;;;;;;;79.10;36.22;;;;;;;6.06;76.14;103014.31;5091849;28;20070;-76
2022/03/25 01:59:53;;;;;;;77.68;36.38;;;;;;;6.10;76.73;103011.44;5092943;28;20035;-75
2022/03/25 02:02:19;;;;;;;72.57;37.30;;;;;;;6.09;76.40;103016.66;5092900;28;20039;-75
2022/03/25 02:04:45;;;;;;;78.43;37.78;;;;;;;6.07;76.75;103010.81;5074591;28;20019;-75
2022/03/25 02:07:10;;;;;;;75.43;36.88;;;;;;;6.00;76.50;103007.03;5093187;28;20063;-75
2022/03/25 02:09:35;;;;;;;79.80;37.95;;;;;;;6.01;76.62;103013.78;5096367;28;20020;-74
2022/03/25 02:12:01;;;;;;;77.82;37.67;;;;;;;6.02;76.93;103007.75;5096541;28;20069;-74
2022/03/25 02:14:26;;;;;;;75.65;37.88;;;;;;;6.03;76.62;103006.81;5096232;28;20055;-76
2022/03/25 02:16:52;;;;;;;73.78;37.10;;;;;;;6.00;76.82;103009.59;5096540;28;20489;-75
2022/03/25 02:19:18;;;;;;;76.60;38.45;;;;;;;5.92;77.12;103010.06;5096141;28;20432;-75
2022/03/25 02:21:47;;;;;;;75.97;38.10;;;;;;;5.81;77.28;103017.63;5095194;28;20028;-75
2022/03/25 02:24:14;;;;;;;77.97;37.72;;;;;;;5.85;77.44;103011.41;5078031;28;20020;-76
2022/03/25 02:26:39;;;;;;;78.57;38.78;;;;;;;5.84;76.72;103012.31;5096249;28;20470;-75
2022/03/25 02:29:09;;;;;;;79.97;37.78;;;;;;;5.71;77.04;102994.34;5096302;28;20020;-75
2022/03/25 02:31:35;;;;;;;75.95;39.28;;;;;;;5.78;77.11;103011.00;5096335;28;20027;-76
2022/03/25 02:34:03;;;;;;;85.53;39.50;;;;;;;5.77;77.01;103006.75;5096273;28;20024;-75
2022/03/25 02:36:29;;;;;;;87.22;40.92;;;;;;;5.75;77.22;103003.47;5096059;28;20031;-75
2022/03/25 02:38:55;;;;;;;86.68;40.17;;;;;;;5.65;77.68;103007.56;5096014;28;20347;-75
2022/03/25 02:41:20;;;;;;;75.32;39.00;;;;;;;5.61;77.28;103004.38;5077870;28;20027;-75
2022/03/25 02:43:45;;;;;;;80.55;40.08;;;;;;;5.31;76.90;103006.34;5077767;28;20031;-76
2022/03/25 02:46:11;;;;;;;90.72;40.53;;;;;;;5.15;78.73;103009.06;5094873;28;20028;-75
2022/03/25 02:48:36;;;;;;;86.45;41.70;;;;;;;5.12;79.16;103006.69;5095960;28;20391;-75
2022/03/25 02:51:02;;;;;;;82.20;40.58;;;;;;;5.09;79.23;103009.44;5095607;28;20048;-76
2022/03/25 02:53:28;;;;;;;81.22;39.58;;;;;;;5.25;78.83;103009.31;5095551;28;20043;-75
2022/03/25 02:55:54;;;;;;;82.55;40.45;;;;;;;5.35;78.98;103006.06;5095585;28;20074;-75
2022/03/25 02:58:20;;;;;;;81.88;39.53;;;;;;;5.45;78.80;103006.28;5095764;28;20027;-75
2022/03/25 03:00:45;;;;;;;83.55;39.97;;;;;;;5.39;78.60;103009.25;5095454;28;20384;-76
2022/03/25 03:03:11;;;;;;;82.05;40.13;;;;;;;5.19;79.08;103010.53;5095774;28;20024;-75
2022/03/25 03:05:36;;;;;;;77.00;39.33;;;;;;;5.21;79.38;103016.38;5077439;28;20065;-75
2022/03/25 03:08:01;;;;;;;80.28;39.35;;;;;;;5.26;79.66;103005.81;5095516;28;20101;-75
2022/03/25 03:10:27;;;;;;;79.95;40.65;;;;;;;5.23;79.15;103003.44;5077205;28;20184;-75
2022/03/25 03:12:53;;;;;;;77.80;40.03;;;;;;;5.24;79.40;103003.38;5077209;28;20024;-74
2022/03/25 03:15:20;;;;;;;81.70;38.90;;;;;;;5.24;79.10;103003.38;5077002;28;20020;-74
2022/03/25 03:17:46;;;;;;;85.70;41.20;;;;;;;5.29;78.64;102998.75;5093975;28;20032;-75
2022/03/25 03:20:13;;;;;;;86.78;40.17;;;;;;;5.27;79.30;103004.91;5094297;28;20035;-74
2022/03/25 03:22:39;;;;;;;86.68;41.63;;;;;;;5.28;79.19;103004.00;5093828;28;20024;-76
2022/03/25 03:25:04;;;;;;;83.03;41.03;;;;;;;5.26;79.49;102998.13;5093722;28;20031;-76
2022/03/25 03:27:30;;;;;;;91.50;42.42;;;;;;;5.22;79.85;102997.50;5095078;28;20022;-75
2022/03/25 03:29:56;;;;;;;79.88;40.35;;;;;;;5.19;79.69;102995.97;5076980;28;20024;-75
2022/03/25 03:32:22;;;;;;;90.60;41.38;;;;;;;5.23;79.36;102993.19;5095086;28;20032;-75
2022/03/25 03:34:48;;;;;;;87.05;41.72;;;;;;;5.16;79.81;102998.72;5094820;28;20056;-75
2022/03/25 03:37:13;;;;;;;86.38;40.95;;;;;;;5.02;80.26;103003.06;5094968;28;20031;-75
2022/03/25 03:39:38;;;;;;;86.15;40.22;;;;;;;5.03;79.66;102997.84;5095027;28;20479;-76
2022/03/25 03:42:04;;;;;;;85.18;41.88;;;;;;;4.98;79.99;103002.44;5093373;28;20047;-75
2022/03/25 03:44:29;;;;;;;81.32;40.40;;;;;;;5.04;79.22;103004.63;5093396;28;20028;-75
2022/03/25 03:46:56;;;;;;;84.38;41.42;;;;;;;5.03;79.70;102994.44;5076925;28;20020;-75
2022/03/25 03:49:21;;;;;;;81.68;41.30;;;;;;;5.01;78.88;102993.75;5094528;28;20081;-75
2022/03/25 03:51:47;;;;;;;81.63;40.97;;;;;;;4.89;79.53;103000.44;5094642;28;20019;-76
2022/03/25 03:54:12;;;;;;;82.47;40.30;;;;;;;4.95;79.44;103003.44;5094623;28;20030;-75
2022/03/25 03:56:38;;;;;;;82.60;40.45;;;;;;;4.95;79.48;103000.06;5094489;28;20028;-75
2022/03/25 03:59:03;;;;;;;79.53;39.47;;;;;;;4.64;79.06;103001.94;5094575;28;20028;-75
2022/03/25 04:01:28;;;;;;;82.60;40.38;;;;;;;4.67;80.14;103006.88;5094679;28;20026;-76
2022/03/25 04:03:54;;;;;;;87.40;40.63;;;;;;;4.70;80.47;102998.19;5076401;28;20023;-75
2022/03/25 04:06:22;;;;;;;89.28;42.55;;;;;;;4.78;79.81;103007.97;5094372;28;20035;-76
2022/03/25 04:08:47;;;;;;;84.68;41.20;;;;;;;4.81;79.83;103010.34;5076324;28;20109;-75
2022/03/25 04:11:12;;;;;;;83.75;40.63;;;;;;;4.85;80.10;102996.44;5094455;28;20020;-75
2022/03/25 04:13:38;;;;;;;87.10;41.72;;;;;;;4.65;78.90;103003.59;5094229;28;20386;-74
2022/03/25 04:16:03;;;;;;;91.07;42.28;;;;;;;4.51;80.89;103013.84;5076279;28;20073;-75
2022/03/25 04:18:29;;;;;;;82.65;41.05;;;;;;;4.68;80.26;103008.53;5094347;28;20016;-75
2022/03/25 04:20:54;;;;;;;87.95;42.20;;;;;;;4.84;80.06;103005.84;5094026;28;20024;-75
2022/03/25 04:23:19;;;;;;;86.45;41.97;;;;;;;4.79;79.79;103002.75;5093854;28;20063;-76
2022/03/25 04:25:44;;;;;;;83.50;41.50;;;;;;;4.69;80.38;102999.09;5094509;28;20065;-75
2022/03/25 04:28:10;;;;;;;86.95;42.35;;;;;;;4.78;80.10;102998.56;5075820;28;20102;-75
2022/03/25 04:30:37;;;;;;;81.03;41.42;;;;;;;4.65;80.23;102998.47;5093725;28;20471;-75
2022/03/25 04:33:04;;;;;;;90.63;41.22;;;;;;;4.54;80.29;103005.97;5093991;28;20030;-75
2022/03/25 04:35:29;;;;;;;80.75;40.78;;;;;;;4.39;80.84;103012.03;5075852;28;20016;-76
2022/03/25 04:37:56;;;;;;;83.20;41.35;;;;;;;4.46;81.65;103010.72;5093892;28;20030;-75
2022/03/25 04:40:23;;;;;;;84.63;41.30;;;;;;;4.61;81.15;103002.16;5075498;28;20032;-75
2022/03/25 04:42:50;;;;;;;93.32;42.35;;;;;;;4.62;80.22;103002.97;5092711;28;20102;-76
2022/03/25 04:45:16;;;;;;;87.90;41.38;;;;;;;4.61;80.56;103003.88;5093751;28;20547;-75
2022/03/25 04:47:43;;;;;;;88.28;42.03;;;;;;;4.48;80.39;103012.28;5093590;28;20043;-75
2022/03/25 04:50:09;;;;;;;82.55;40.95;;;;;;;4.33;81.16;103020.91;5093444;28;20079;-76
2022/03/25 04:52:35;;;;;;;84.03;40.40;;;;;;;4.38;81.15;103018.88;5075596;28;20024;-75
2022/03/25 04:55:00;;;;;;;86.07;40.92;;;;;;;4.35;80.74;103019.06;5075674;28;20027;-76
2022/03/25 04:57:26;;;;;;;79.38;39.63;;;;;;;4.36;80.64;103019.88;5075314;28;20031;-76
2022/03/25 04:59:51;;;;;;;84.75;40.45;;;;;;;4.28;80.97;103025.44;5075290;28;20024;-76
2022/03/25 05:02:16;;;;;;;83.30;41.25;;;;;;;4.30;80.63;103021.06;5093744;28;20023;-75
2022/03/25 05:04:42;;;;;;;79.93;38.78;;;;;;;4.34;80.71;103026.84;5093851;28;20059;-75
2022/03/25 05:07:18;;;;;;;88.65;40.88;;;;;;;4.28;79.39;103028.00;5093553;28;20073;-76
2022/03/25 05:09:44;;;;;;;85.47;41.78;;;;;;;4.16;80.39;103024.44;5092443;28;20031;-76
2022/03/25 05:12:12;;;;;;;82.72;40.67;;;;;;;4.24;80.45;103027.38;5093640;28;20375;-75
2022/03/25 05:14:38;;;;;;;83.43;40.90;;;;;;;4.31;80.71;103035.50;5075377;28;20024;-75
2022/03/25 05:17:04;;;;;;;87.13;41.47;;;;;;;4.16;80.68;103023.63;5075364;28;20032;-76
2022/03/25 05:19:30;;;;;;;87.47;41.97;;;;;;;4.22;81.25;103042.00;5075392;28;20032;-76
2022/03/25 05:21:55;;;;;;;84.07;40.92;;;;;;;4.07;81.04;103043.72;5093390;28;20035;-74
2022/03/25 05:24:21;;;;;;;88.82;41.40;;;;;;;3.97;81.08;103041.75;5093467;28;20363;-77
2022/03/25 05:26:46;;;;;;;86.85;41.33;;;;;;;3.92;81.14;103039.50;5075126;28;20030;-76
2022/03/25 05:29:12;;;;;;;83.80;41.75;;;;;;;4.05;80.52;103040.41;5075387;28;20027;-76
2022/03/25 05:31:37;;;;;;;93.22;42.53;;;;;;;4.15;80.28;103040.72;5093165;28;20112;-75
2022/03/25 05:34:06;;;;;;;86.60;41.60;;;;;;;4.02;80.79;103003.94;5091996;28;20028;-76
2022/03/25 05:36:32;;;;;;;86.30;42.00;;;;;;;4.26;79.37;103035.81;5093415;28;20027;-76
2022/03/25 05:38:58;;;;;;;84.47;42.63;;;;;;;4.32;80.51;103046.59;5093055;28;20028;-75
2022/03/25 05:41:24;;;;;;;89.20;42.70;;;;;;;4.40;80.36;103045.22;5093232;28;20024;-76
2022/03/25 05:43:50;;;;;;;87.82;42.63;;;;;;;4.42;80.29;103045.13;5095654;28;20081;-75
2022/03/25 05:46:16;;;;;;;90.22;44.25;;;;;;;4.30;80.71;103044.94;5079064;28;20024;-75
2022/03/25 05:48:42;;;;;;;93.95;45.05;;;;;;;4.52;81.54;103048.81;5078899;28;20051;-76
2022/03/25 05:51:07;;;;;;;96.85;44.22;;;;;;;4.51;80.95;103047.94;5097161;28;20052;-74
2022/03/25 05:53:33;;;;;;;90.43;42.78;;;;;;;4.58;80.36;103047.59;5096969;28;20050;-75
2022/03/25 05:55:59;;;;;;;94.35;43.97;;;;;;;4.60;79.59;103053.44;5097410;28;20023;-75
2022/03/25 05:58:25;;;;;;;89.03;42.55;;;;;;;4.36;80.25;103059.09;5078549;28;20081;-75
2022/03/25 06:00:50;;;;;;;92.35;43.97;;;;;;;4.42;81.33;103061.31;5095731;28;20020;-75
2022/03/25 06:03:15;;;;;;;102.50;43.50;;;;;;;4.61;80.21;103063.59;5096857;28;20386;-76
2022/03/25 06:05:41;;;;;;;90.30;42.10;;;;;;;4.73;79.45;103062.03;5078681;28;20027;-75
2022/03/25 06:08:07;;;;;;;90.30;42.47;;;;;;;4.74;78.75;103063.69;5097591;28;20111;-75
2022/03/25 06:10:33;;;;;;;97.78;42.92;;;;;;;4.50;78.60;103035.25;5095598;28;20486;-76
2022/03/25 06:12:58;;;;;;;89.03;42.78;;;;;;;4.76;79.52;103064.41;5078493;28;20028;-75
2022/03/25 06:15:24;;;;;;;91.47;44.25;;;;;;;4.81;79.61;103062.41;5078069;28;20036;-75
2022/03/25 06:17:50;;;;;;;83.55;42.50;;;;;;;4.97;78.42;103062.28;5078336;28;20019;-76
2022/03/25 06:20:23;;;;;;;94.57;43.13;;;;;;;5.07;78.53;103072.81;5096758;28;20027;-75
2022/03/25 06:22:49;;;;;;;83.50;42.87;;;;;;;5.10;77.93;103072.63;5096360;28;20103;-76
2022/03/25 06:25:16;;;;;;;86.25;42.63;;;;;;;5.17;77.22;103066.19;5078079;28;20682;-76
2022/03/25 06:27:53;;;;;;;87.10;42.95;;;;;;;5.26;77.43;103068.16;5096175;28;20028;-76
2022/03/25 06:30:20;;;;;;;88.30;43.67;;;;;;;5.28;77.02;103063.78;5077916;28;20024;-76
2022/03/25 06:32:46;;;;;;;84.15;42.78;;;;;;;5.28;77.57;103075.78;5095766;28;20023;-75
2022/03/25 06:35:12;;;;;;;86.47;42.85;;;;;;;5.29;77.54;103075.66;5077535;28;20030;-74
2022/03/25 06:37:37;;;;;;;89.15;43.30;;;;;;;5.37;77.06;103075.19;5095870;28;20035;-76
2022/03/25 06:40:07;;;;;;;83.28;41.35;;;;;;;5.55;76.43;103079.16;5077399;28;20077;-75
2022/03/25 06:42:33;;;;;;;85.30;43.20;;;;;;;5.70;76.22;103076.53;5096208;28;20020;-75
2022/03/25 06:44:58;;;;;;;89.85;44.30;;;;;;;5.70;75.74;103087.63;5095464;28;20031;-75
2022/03/25 06:47:23;;;;;;;89.88;44.10;;;;;;;5.88;75.99;103090.75;5095376;28;20024;-75
2022/03/25 06:49:49;;;;;;;88.10;44.47;;;;;;;6.07;75.01;103085.25;5095047;28;20044;-75
2022/03/25 06:52:15;;;;;;;88.68;44.03;;;;;;;6.20;75.40;103082.72;5094156;28;20028;-76
2022/03/25 06:54:40;;;;;;;85.63;43.03;;;;;;;6.34;74.67;103087.75;5077205;28;20020;-77
2022/03/25 06:57:06;;;;;;;87.55;43.55;;;;;;;6.54;74.68;103086.41;5077305;28;20109;-75
2022/03/25 06:59:32;;;;;;;86.50;43.67;;;;;;;6.67;75.18;103083.81;5093915;28;20063;-78
2022/03/25 07:01:57;;;;;;;88.60;43.85;;;;;;;6.83;74.82;103087.00;5095259;28;20483;-75
2022/03/25 07:04:23;;;;;;;87.22;44.17;;;;;;;6.94;74.54;103094.78;5095391;28;20016;-76
2022/03/25 07:06:49;;;;;;;91.50;44.80;;;;;;;7.09;74.33;103084.38;5095687;28;20031;-75
2022/03/25 07:09:14;;;;;;;91.22;45.00;;;;;;;7.18;74.66;103088.84;5095607;28;20027;-76
2022/03/25 07:11:40;;;;;;;87.25;45.22;;;;;;;7.31;74.19;103099.09;5095462;28;20530;-76
2022/03/25 07:14:06;;;;;;;86.90;44.92;;;;;;;7.51;73.55;103100.25;5077447;28;20028;-75
2022/03/25 07:16:31;;;;;;;89.97;45.65;;;;;;;7.72;73.17;103101.28;5077168;28;20039;-76
2022/03/25 07:18:56;;;;;;;88.35;45.35;;;;;;;7.90;73.19;103097.34;5095576;28;20062;-75
2022/03/25 07:21:22;;;;;;;89.18;45.33;;;;;;;8.01;71.82;103108.63;5095321;28;20027;-75
2022/03/25 07:23:47;;;;;;;85.22;43.40;;;;;;;8.25;72.44;103103.41;5077391;28;20455;-75
2022/03/25 07:26:12;;;;;;;90.38;44.30;;;;;;;8.46;70.33;103114.72;5076880;28;20024;-75
2022/03/25 07:28:38;;;;;;;88.72;44.10;;;;;;;9.10;68.85;103114.09;5094981;28;20024;-75
2022/03/25 07:31:05;;;;;;;79.47;44.55;;;;;;;12.29;59.56;103120.69;5077029;28;20115;-75
2022/03/25 07:33:30;;;;;;;77.45;43.22;;;;;;;14.85;50.60;103113.13;5076130;28;20027;-75
2022/03/25 07:35:56;;;;;;;73.80;43.53;;;;;;;16.20;47.27;103110.06;5095091;28;20448;-75
2022/03/25 07:38:21;;;;;;;77.68;45.63;;;;;;;16.87;45.24;103121.91;5076514;28;20471;-74
2022/03/25 07:40:47;;;;;;;75.35;45.38;;;;;;;17.14;44.51;103120.56;5094707;28;20035;-76
2022/03/25 07:43:12;;;;;;;77.88;45.38;;;;;;;17.57;42.99;103111.25;5094379;28;20466;-73
2022/03/25 07:45:37;;;;;;;68.70;45.67;;;;;;;18.25;41.19;103122.56;5094510;28;20044;-74
2022/03/25 07:48:03;;;;;;;65.38;43.83;;;;;;;17.89;40.93;103127.66;5094455;28;20371;-75
2022/03/25 07:50:31;;;;;;;65.03;44.42;;;;;;;17.85;40.40;103126.41;5094111;28;20059;-75
2022/03/25 07:52:56;;;;;;;62.17;43.80;;;;;;;17.86;39.56;103127.22;5094426;28;20020;-75
2022/03/25 07:55:23;;;;;;;65.55;43.85;;;;;;;18.50;39.00;103132.75;5094681;28;20469;-75
2022/03/25 07:57:49;;;;;;;61.55;41.58;;;;;;;19.20;37.56;103130.50;5094538;28;20060;-75
2022/03/25 08:00:15;;;;;;;58.15;40.53;;;;;;;19.19;36.78;103144.59;5093166;28;20051;-76
2022/03/25 08:02:46;;;;;;;60.35;40.13;;;;;;;19.34;36.41;103138.31;5094773;28;20032;-75
2022/03/25 08:05:13;;;;;;;56.58;40.45;;;;;;;19.15;35.78;103141.53;5094433;28;20107;-74
2022/03/25 08:07:52;;;;;;;59.28;40.67;;;;;;;19.27;35.96;103134.00;5094456;28;20475;-75
2022/03/25 08:10:21;;;;;;;54.22;40.75;;;;;;;19.42;35.08;103139.16;5076517;28;20028;-76
2022/03/25 08:12:47;;;;;;;60.35;40.38;;;;;;;19.05;34.88;103146.28;5076354;28;20356;-76
2022/03/25 08:15:13;;;;;;;57.85;40.05;;;;;;;19.95;34.22;103145.66;5094452;28;20050;-75
2022/03/25 08:17:46;;;;;;;57.25;39.90;;;;;;;19.54;36.38;103119.31;5076920;28;20081;-75
2022/03/25 08:20:12;;;;;;;56.22;39.28;;;;;;;19.74;33.73;103145.72;5096262;28;20080;-75
2022/03/25 08:22:37;;;;;;;59.53;38.45;;;;;;;19.57;33.37;103145.16;5093679;28;20016;-75
2022/03/25 08:27:50;;;;;;;52.03;36.13;;;;;;;19.57;32.28;103151.22;5094308;28;20124;-77
2022/03/25 08:30:15;;;;;;;57.00;35.10;;;;;;;19.67;32.03;103147.47;5094204;28;20020;-75
2022/03/25 08:32:40;;;;;;;52.25;34.92;;;;;;;20.19;30.32;103152.25;5093909;28;20463;-75
2022/03/25 08:35:07;;;;;;;51.25;35.08;;;;;;;18.73;32.93;103150.94;5093999;28;20519;-75
2022/03/25 08:37:32;;;;;;;50.00;34.72;;;;;;;19.18;32.70;103159.50;5093864;28;20020;-76
2022/03/25 08:39:58;;;;;;;53.17;34.95;;;;;;;19.54;31.66;103158.66;5093965;28;20016;-77
2022/03/25 08:42:23;;;;;;;55.22;35.08;;;;;;;19.36;31.26;103162.53;5093892;28;20024;-75
2022/03/25 08:44:48;;;;;;;53.25;35.22;;;;;;;19.89;31.04;103156.13;5094094;28;20432;-76
2022/03/25 08:47:13;;;;;;;46.53;34.28;;;;;;;19.82;30.35;103156.88;5093757;28;20028;-75
2022/03/25 08:49:39;;;;;;;46.97;32.90;;;;;;;20.23;30.52;103156.13;5093562;28;20484;-76
2022/03/25 08:52:04;;;;;;;51.92;34.17;;;;;;;21.18;29.52;103167.59;5093203;28;20164;-76
2022/03/25 08:54:30;;;;;;;50.67;33.08;;;;;;;20.68;29.27;103156.53;5075512;28;20475;-75
2022/03/25 08:56:55;;;;;;;49.92;33.63;;;;;;;21.98;27.93;103166.78;5093874;28;20031;-75
2022/03/25 08:59:21;;;;;;;53.60;34.30;;;;;;;20.65;30.70;103172.69;5093300;28;20024;-75
2022/03/25 09:01:46;;;;;;;49.88;33.47;;;;;;;21.42;29.05;103178.56;5093794;28;20023;-75
2022/03/25 09:04:11;;;;;;;49.88;33.80;;;;;;;22.15;27.95;103181.13;5075547;28;20353;-76
2022/03/25 09:06:36;;;;;;;50.53;34.80;;;;;;;21.53;29.25;103177.97;5075537;28;20090;-76
2022/03/25 09:09:02;;;;;;;49.72;34.90;;;;;;;22.54;27.79;103171.53;5075309;28;20081;-76
2022/03/25 09:11:27;;;;;;;53.28;34.00;;;;;;;21.50;29.20;103185.47;5093760;28;20024;-77
2022/03/25 09:13:54;;;;;;;61.67;35.38;;;;;;;22.33;28.18;103172.63;5093404;28;20059;-75
2022/03/25 09:16:19;;;;;;;54.28;33.92;;;;;;;22.17;28.19;103176.50;5074648;28;20024;-74
2022/03/25 09:18:44;;;;;;;50.47;34.22;;;;;;;21.37;29.18;103181.78;5093315;28;20047;-74
2022/03/25 09:21:10;;;;;;;58.13;34.63;;;;;;;20.75;30.43;103182.06;5096313;28;20451;-75
2022/03/25 09:23:36;;;;;;;54.38;34.67;;;;;;;21.73;29.30;103179.81;5096273;28;20103;-74
2022/03/25 09:26:02;;;;;;;51.30;33.90;;;;;;;22.29;28.40;103177.47;5096187;28;20024;-74
2022/03/25 09:28:28;;;;;;;55.72;34.42;;;;;;;21.92;28.27;103178.94;5077815;28;20078;-75
2022/03/25 09:30:55;;;;;;;53.97;32.17;;;;;;;20.45;30.51;103192.78;5096304;28;20028;-76
2022/03/25 09:33:20;;;;;;;50.75;31.67;;;;;;;20.35;30.96;103166.09;5079448;28;20055;-77
2022/03/25 09:35:46;;;;;;;52.83;33.17;;;;;;;18.55;33.86;103169.66;5097431;28;20056;-77
2022/03/25 09:38:12;;;;;;;50.13;28.83;;;;;;;18.60;33.34;103169.13;5097694;28;20020;-76
2022/03/25 09:40:40;;;;;;;49.03;31.98;;;;;;;18.89;33.58;103171.69;5097506;28;20031;-76
2022/03/25 09:43:05;;;;;;;47.67;29.80;;;;;;;19.33;32.69;103168.16;5095769;28;20470;-77
2022/03/25 09:45:33;;;;;;;50.47;31.35;;;;;;;17.14;37.00;103168.41;5096115;28;20031;-76
2022/03/25 09:47:59;;;;;;;46.40;27.88;;;;;;;16.88;36.59;103183.56;5096600;28;20481;-76
2022/03/25 09:50:26;;;;;;;43.75;26.85;;;;;;;18.56;33.91;103173.06;5096717;28;20075;-76
2022/03/25 09:52:52;;;;;;;46.10;26.70;;;;;;;18.40;33.07;103171.47;5097125;28;20028;-76
2022/03/25 09:55:19;;;;;;;48.65;27.55;;;;;;;17.86;35.65;103172.50;5095785;28;20024;-75
2022/03/25 09:57:44;;;;;;;48.53;28.27;;;;;;;18.47;34.69;103164.50;5094469;28;20118;-74
2022/03/25 10:00:16;;;;;;;43.22;26.90;;;;;;;18.90;33.95;103173.34;5077612;28;20110;-75
2022/03/25 10:02:41;;;;;;;46.35;26.77;;;;;;;17.94;34.28;103159.34;5094525;28;20077;-76
2022/03/25 10:05:20;;;;;;;46.20;26.20;;;;;;;18.51;34.23;103162.34;5095057;28;20027;-75
2022/03/25 10:07:49;;;;;;;45.95;27.15;;;;;;;18.29;33.66;103158.84;5095834;28;20107;-76
2022/03/25 10:10:21;;;;;;;46.15;29.02;;;;;;;16.46;36.54;103163.81;5096622;28;20020;-76
2022/03/25 10:12:49;;;;;;;46.67;28.67;;;;;;;17.79;36.17;103171.59;5097093;28;20020;-76
2022/03/25 10:15:23;;;;;;;51.30;28.33;;;;;;;18.81;33.88;103163.94;5096165;28;20020;-75
2022/03/25 10:17:49;;;;;;;45.00;26.83;;;;;;;18.43;33.54;103160.63;5095807;28;20059;-75
2022/03/25 10:20:16;;;;;;;44.90;26.38;;;;;;;18.46;33.29;103160.28;5095523;28;20020;-75
2022/03/25 10:23:04;;;;;;;43.17;26.80;;;;;;;18.26;32.80;103155.56;5096614;28;20044;-75
2022/03/25 10:25:47;;;;;;;46.08;25.42;;;;;;;18.99;32.52;103158.31;5095308;28;20032;-76
2022/03/25 10:28:36;;;;;;;44.22;26.83;;;;;;;19.53;31.95;103157.00;5094799;28;20062;-75
2022/03/25 10:31:07;;;;;;;39.35;24.63;;;;;;;19.14;33.14;103153.03;5096275;28;20478;-76
2022/03/25 10:33:37;;;;;;;38.65;24.42;;;;;;;19.27;32.51;103149.72;5096460;28;20016;-76
2022/03/25 10:36:17;;;;;;;44.58;23.92;;;;;;;17.28;33.74;103168.66;5096239;28;20024;-76
2022/03/25 10:38:57;;;;;;;63.30;25.15;;;;;;;18.53;34.23;103158.56;5096630;28;20023;-75
2022/03/25 10:41:25;;;;;;;44.75;25.98;;;;;;;17.03;36.10;103157.53;5096416;28;20499;-75
2022/03/25 10:43:55;;;;;;;41.95;24.88;;;;;;;17.24;35.29;103154.34;5096156;28;20028;-75
2022/03/25 10:46:30;;;;;;;44.45;24.30;;;;;;;18.43;32.66;103156.22;5095296;28;20039;-74
2022/03/25 10:48:56;;;;;;;40.85;23.20;;;;;;;17.50;33.69;103153.97;5094436;28;20498;-76
2022/03/25 10:51:21;;;;;;;43.35;22.95;;;;;;;18.86;32.57;103145.88;5095895;28;20048;-74
2022/03/25 10:53:56;;;;;;;45.58;23.58;;;;;;;18.53;32.59;103150.72;5077506;28;20067;-74
2022/03/25 10:56:22;;;;;;;47.80;24.88;;;;;;;19.12;31.80;103149.78;5094775;28;20511;-75
2022/03/25 10:58:55;;;;;;;46.03;25.13;;;;;;;18.84;32.23;103149.69;5094740;28;20127;-74
2022/03/25 11:01:21;;;;;;;46.60;24.50;;;;;;;19.19;33.04;103147.22;5095789;28;20110;-75
2022/03/25 11:03:50;;;;;;;45.08;24.48;;;;;;;18.14;33.70;103145.75;5095655;28;20020;-76
2022/03/25 11:06:18;;;;;;;43.42;23.50;;;;;;;19.30;32.96;103151.97;5096027;28;20028;-76
2022/03/25 11:08:44;;;;;;;49.78;24.40;;;;;;;18.29;32.91;103145.75;5077514;28;20039;-76
2022/03/25 11:11:09;;;;;;;40.33;24.38;;;;;;;18.78;32.79;103142.56;5076815;28;20028;-75
2022/03/25 11:13:35;;;;;;;43.58;24.85;;;;;;;19.18;31.83;103143.78;5093716;28;20035;-75